Alco, Arkansas
Current Conditions -  °F | °C
As of 2:35 AM on Sunday 21 Dec 2014 (Local Time) from KCCA Reporting Station
Haze Haze  
Wind Chill:   Ceiling: 3500
Heat Index:   Visibility: 5mi
Dew Point:   Wind: 0mph
Humidity: 93%   Direction: NA
Pressure: 30.23"   Gusts: NA
Location:  35.89°N, 92.37°W
Report Text: KCCA 210835Z AUTO 00000KT 5SM BR OVC035 04/03 A3023 RMK AO2
Loading
Personal Weather Stations






























Interactive Weather Map New forecast layout! Learn more

10-Day Weather Forecast

Advertisements
Track Severe Weather on mobile